ADDS METAR Data INFO
IDs: Format: Raw Decoded Include TAF

Data at: 1946 UTC 28 Apr 2017

METAR for:KSJC (San Jose Intl Arpt, CA, US)
Text:KSJC 281853Z 30009KT 10SM BKN090 OVC120 19/06 A3006 RMK AO2 SLP179 T01890061
Temperature: 18.9°C ( 66°F)
Dewpoint: 6.1°C ( 43°F) [RH = 43%]
Pressure (altimeter):30.06 inches Hg (1018.0 mb) [Sea level pressure: 1017.9 mb]
Winds:from the WNW (300 degrees) at 10 MPH (9 knots; 4.6 m/s)
Visibility:10 or more sm (16+ km)
Ceiling:9000 feet AGL
Clouds: broken clouds at 9000 feet AGL, overcast cloud deck at 12000 feet AGL
Text:KSJC 281753Z 29007KT 10SM BKN090 OVC120 17/06 A3006 RMK AO2 SLP180 T01720061 10172 20094 58001
Temperature: 17.2°C ( 63°F)
Dewpoint: 6.1°C ( 43°F) [RH = 48%]
Pressure (altimeter):30.06 inches Hg (1018.0 mb) [Sea level pressure: 1018.0 mb]
Winds:from the WNW (290 degrees) at 8 MPH (7 knots; 3.6 m/s)
Visibility:10 or more sm (16+ km)
Ceiling:9000 feet AGL
Clouds: broken clouds at 9000 feet AGL, overcast cloud deck at 12000 feet AGL
Text:KSJC 281653Z 29010KT 10SM BKN090 BKN120 16/07 A3008 RMK AO2 SLP183 T01610072
Temperature: 16.1°C ( 61°F)
Dewpoint: 7.2°C ( 45°F) [RH = 56%]
Pressure (altimeter):30.08 inches Hg (1018.7 mb) [Sea level pressure: 1018.3 mb]
Winds:from the WNW (290 degrees) at 12 MPH (10 knots; 5.1 m/s)
Visibility:10 or more sm (16+ km)
Ceiling:9000 feet AGL
Clouds: broken clouds at 9000 feet AGL, broken clouds at 12000 feet AGL
Text:KSJC 281553Z 30006KT 10SM FEW025 BKN090 BKN120 15/07 A3007 RMK AO2 SLP183 T01500072
Temperature: 15.0°C ( 59°F)
Dewpoint: 7.2°C ( 45°F) [RH = 60%]
Pressure (altimeter):30.07 inches Hg (1018.4 mb) [Sea level pressure: 1018.3 mb]
Winds:from the WNW (300 degrees) at 7 MPH (6 knots; 3.1 m/s)
Visibility:10 or more sm (16+ km)
Ceiling:9000 feet AGL
Clouds: few clouds at 2500 feet AGL, broken clouds at 9000 feet AGL, broken clouds at 12000 feet AGL
Text:KSJC 281453Z 00000KT 9SM FEW024 SCT090 SCT120 13/07 A3007 RMK AO2 SLP181 T01280067 53013
Temperature: 12.8°C ( 55°F)
Dewpoint: 6.7°C ( 44°F) [RH = 66%]
Pressure (altimeter):30.07 inches Hg (1018.4 mb) [Sea level pressure: 1018.1 mb]
Winds:calm
Visibility: 9 sm ( 14 km)
Ceiling:at least 12,000 feet AGL
Clouds: few clouds at 2400 feet AGL, scattered clouds at 9000 feet AGL, scattered clouds at 12000 feet AGL
Text:KSJC 281353Z 00000KT 10SM FEW018 FEW090 SCT120 10/06 A3005 RMK AO2 SLP174 T01000056
Temperature: 10.0°C ( 50°F)
Dewpoint: 5.6°C ( 42°F) [RH = 74%]
Pressure (altimeter):30.05 inches Hg (1017.7 mb) [Sea level pressure: 1017.4 mb]
Winds:calm
Visibility:10 or more sm (16+ km)
Ceiling:at least 12,000 feet AGL
Clouds: few clouds at 1800 feet AGL, few clouds at 9000 feet AGL, scattered clouds at 12000 feet AGL
Text:KSJC 281253Z 00000KT 10SM FEW018 10/05 A3004 RMK AO2 SLP170 T01000050
Temperature: 10.0°C ( 50°F)
Dewpoint: 5.0°C ( 41°F) [RH = 71%]
Pressure (altimeter):30.04 inches Hg (1017.4 mb) [Sea level pressure: 1017.0 mb]
Winds:calm
Visibility:10 or more sm (16+ km)
Ceiling:at least 12,000 feet AGL
Clouds: few clouds at 1800 feet AGL
Text:KSJC 281153Z AUTO 00000KT 10SM CLR 11/05 A3003 RMK AO2 SLP168 T01060050 10133 20100 55003
Temperature: 10.6°C ( 51°F)
Dewpoint: 5.0°C ( 41°F) [RH = 68%]
Pressure (altimeter):30.03 inches Hg (1017.0 mb) [Sea level pressure: 1016.8 mb]
Winds:calm
Visibility:10 or more sm (16+ km)
Ceiling:at least 12,000 feet AGL
Clouds:sky clear below 12,000 feet AGL
QC Flag:automated observation with no human augmentation
Text:KSJC 281053Z AUTO 29004KT 10SM CLR 11/05 A3003 RMK AO2 SLP168 T01060050
Temperature: 10.6°C ( 51°F)
Dewpoint: 5.0°C ( 41°F) [RH = 68%]
Pressure (altimeter):30.03 inches Hg (1017.0 mb) [Sea level pressure: 1016.8 mb]
Winds:from the WNW (290 degrees) at 5 MPH (4 knots; 2.1 m/s)
Visibility:10 or more sm (16+ km)
Ceiling:at least 12,000 feet AGL
Clouds:sky clear below 12,000 feet AGL
QC Flag:automated observation with no human augmentation
Text:KSJC 280953Z AUTO 34003KT 10SM CLR 11/06 A3004 RMK AO2 SLP170 T01110056
Temperature: 11.1°C ( 52°F)
Dewpoint: 5.6°C ( 42°F) [RH = 69%]
Pressure (altimeter):30.04 inches Hg (1017.4 mb) [Sea level pressure: 1017.0 mb]
Winds:from the NNW (340 degrees) at 3 MPH (3 knots; 1.5 m/s)
Visibility:10 or more sm (16+ km)
Ceiling:at least 12,000 feet AGL
Clouds:sky clear below 12,000 feet AGL
QC Flag:automated observation with no human augmentation
Text:KSJC 280853Z AUTO 29005KT 10SM CLR 11/07 A3004 RMK AO2 SLP171 T01110067 58003
Temperature: 11.1°C ( 52°F)
Dewpoint: 6.7°C ( 44°F) [RH = 74%]
Pressure (altimeter):30.04 inches Hg (1017.4 mb) [Sea level pressure: 1017.1 mb]
Winds:from the WNW (290 degrees) at 6 MPH (5 knots; 2.6 m/s)
Visibility:10 or more sm (16+ km)
Ceiling:at least 12,000 feet AGL
Clouds:sky clear below 12,000 feet AGL
QC Flag:automated observation with no human augmentation
Text:KSJC 280753Z AUTO 30005KT 10SM CLR 12/07 A3005 RMK AO2 SLP174 T01170067 402110117
Temperature: 11.7°C ( 53°F)
Dewpoint: 6.7°C ( 44°F) [RH = 71%]
Pressure (altimeter):30.05 inches Hg (1017.7 mb) [Sea level pressure: 1017.4 mb]
Winds:from the WNW (300 degrees) at 6 MPH (5 knots; 2.6 m/s)
Visibility:10 or more sm (16+ km)
Ceiling:at least 12,000 feet AGL
Clouds:sky clear below 12,000 feet AGL
QC Flag:automated observation with no human augmentation


Page loaded:  19:46 UTC  |   12:46 PM Pacific  |   01:46 PM Mountain  |   02:46 PM Central  |   03:46 PM Eastern

 

ADVISORIES

FORECASTS

FORECASTS

OBSERVATIONS

USER TOOLS

ABOUT US